createdAt,value
2023-02-27T00:01:17.495Z,59.85
2023-02-27T00:03:47.357Z,60.85
2023-02-27T00:06:18.813Z,44.63
2023-02-27T00:08:47.798Z,61.33
2023-02-27T00:11:17.042Z,54.78
2023-02-27T00:13:46.194Z,59.28
2023-02-27T00:16:15.496Z,59.60
2023-02-27T00:18:44.481Z,52.13
2023-02-27T00:21:13.699Z,58.05
2023-02-27T00:23:42.653Z,49.75
2023-02-27T00:26:11.364Z,37.05
2023-02-27T00:28:40.558Z,41.35
2023-02-27T00:31:09.578Z,48.13
2023-02-27T00:33:38.652Z,35.92
2023-02-27T00:36:10.806Z,35.63
2023-02-27T00:38:39.797Z,41.55
2023-02-27T00:41:08.674Z,49.85
2023-02-27T00:43:37.693Z,36.60
2023-02-27T00:46:06.765Z,61.60
2023-02-27T00:48:35.800Z,40.45
2023-02-27T00:51:04.655Z,45.85
2023-02-27T00:53:33.726Z,53.25
2023-02-27T00:56:02.511Z,44.50
2023-02-27T00:58:31.492Z,47.88
2023-02-27T01:01:04.976Z,33.13
2023-02-27T01:03:36.324Z,29.17
2023-02-27T01:06:06.159Z,36.95
2023-02-27T01:08:38.375Z,38.65
2023-02-27T01:11:10.373Z,29.65
2023-02-27T01:13:41.425Z,25.67
2023-02-27T01:16:12.063Z,31.45
2023-02-27T01:18:41.992Z,38.78
2023-02-27T01:21:11.889Z,35.03
2023-02-27T01:23:41.743Z,28.50
2023-02-27T01:26:11.847Z,24.10
2023-02-27T01:28:41.177Z,32.80
2023-02-27T01:31:10.799Z,22.25
2023-02-27T01:33:40.959Z,36.30
2023-02-27T01:36:11.686Z,20.38
2023-02-27T01:38:41.694Z,32.40
2023-02-27T01:41:11.420Z,34.33
2023-02-27T01:44:02.886Z,28.63
2023-02-27T01:46:34.248Z,43.08
2023-02-27T01:49:29.050Z,31.40
2023-02-27T01:52:17.452Z,78.90
2023-02-27T01:54:47.439Z,53.95
2023-02-27T01:57:17.403Z,25.85
2023-02-27T01:59:48.105Z,32.05
2023-02-27T02:02:27.863Z,35.03
2023-02-27T02:04:59.091Z,31.02
2023-02-27T02:07:30.380Z,38.17
2023-02-27T02:10:03.612Z,66.25
2023-02-27T02:15:06.133Z,28.25
2023-02-27T02:18:10.972Z,38.00
2023-02-27T02:21:17.865Z,54.63
2023-02-27T02:24:02.416Z,110.47
2023-02-27T02:26:59.252Z,115.93
2023-02-27T02:29:51.416Z,123.47
2023-02-27T02:35:45.752Z,42.33
2023-02-27T02:38:37.566Z,84.20
2023-02-27T02:41:15.546Z,40.10
2023-02-27T02:44:19.122Z,43.90
2023-02-27T02:47:26.016Z,54.58
2023-02-27T02:50:08.790Z,60.00
2023-02-27T02:52:44.760Z,38.10
2023-02-27T02:55:30.030Z,38.85
2023-02-27T02:58:50.882Z,44.35
2023-02-27T03:01:28.780Z,42.72
2023-02-27T03:04:23.310Z,46.00
2023-02-27T03:07:01.019Z,49.28
2023-02-27T03:10:06.631Z,36.00
2023-02-27T03:12:38.563Z,38.42
2023-02-27T03:15:23.916Z,45.60
2023-02-27T03:18:05.893Z,36.70
2023-02-27T03:20:43.674Z,45.30
2023-02-27T03:23:18.816Z,40.97
2023-02-27T03:25:51.975Z,42.45
2023-02-27T03:28:30.507Z,47.78
2023-02-27T03:31:14.637Z,52.17
2023-02-27T03:34:01.655Z,58.78
2023-02-27T03:36:44.558Z,41.80
2023-02-27T03:39:49.382Z,55.33
2023-02-27T03:42:33.362Z,44.25
2023-02-27T03:45:38.839Z,47.42
2023-02-27T03:48:10.204Z,39.38
2023-02-27T03:50:40.818Z,45.17
2023-02-27T03:53:21.129Z,52.75
2023-02-27T03:55:52.936Z,48.83
2023-02-27T03:58:23.092Z,35.30
2023-02-27T04:00:53.626Z,71.10
2023-02-27T04:03:24.322Z,68.65
2023-02-27T04:05:54.506Z,50.53
2023-02-27T04:08:57.978Z,38.13
2023-02-27T04:11:33.861Z,53.67
2023-02-27T04:14:03.604Z,41.53
2023-02-27T04:16:46.965Z,45.13
2023-02-27T04:19:32.103Z,81.55
2023-02-27T04:22:10.628Z,49.08
2023-02-27T04:24:47.618Z,29.77
2023-02-27T04:27:23.443Z,43.22
2023-02-27T04:30:11.797Z,206.52
2023-02-27T04:32:51.594Z,41.38
2023-02-27T04:35:35.000Z,19.73
2023-02-27T04:38:19.697Z,34.50
2023-02-27T04:40:57.022Z,79.35
2023-02-27T04:43:29.145Z,18.33
2023-02-27T04:46:01.996Z,24.45
2023-02-27T04:48:38.877Z,22.60
2023-02-27T04:51:14.719Z,24.30
2023-02-27T04:54:18.879Z,16.15
2023-02-27T04:57:03.159Z,33.60
2023-02-27T04:59:40.421Z,32.15
2023-02-27T05:02:12.192Z,24.70
2023-02-27T05:04:44.793Z,30.80
2023-02-27T05:10:04.851Z,24.55
2023-02-27T05:12:45.809Z,13.85
2023-02-27T05:15:17.344Z,25.25
2023-02-27T05:18:14.500Z,27.35
2023-02-27T05:20:55.334Z,15.70
2023-02-27T05:23:37.149Z,20.00
2023-02-27T05:26:38.890Z,15.13
2023-02-27T05:29:33.274Z,23.55
2023-02-27T05:32:28.122Z,26.83
2023-02-27T05:35:10.919Z,21.85
2023-02-27T05:37:54.617Z,20.52
2023-02-27T05:40:31.099Z,22.30
2023-02-27T05:43:22.557Z,19.67
2023-02-27T05:45:54.330Z,31.67
2023-02-27T05:48:28.900Z,21.27
2023-02-27T05:51:00.558Z,18.30
2023-02-27T05:53:36.006Z,23.73
2023-02-27T05:56:07.863Z,29.73
2023-02-27T05:58:51.219Z,32.28
2023-02-27T06:01:20.421Z,18.48
2023-02-27T06:03:49.137Z,26.77
2023-02-27T06:06:20.624Z,34.22
2023-02-27T06:08:49.637Z,35.63
2023-02-27T06:11:18.900Z,18.50
2023-02-27T06:13:47.878Z,26.50
2023-02-27T06:16:18.106Z,23.73
2023-02-27T06:18:47.144Z,19.98
2023-02-27T06:21:16.168Z,16.52
2023-02-27T06:23:46.169Z,28.17
2023-02-27T06:26:15.235Z,44.55
2023-02-27T06:28:44.042Z,18.23
2023-02-27T06:31:13.020Z,26.70
2023-02-27T06:33:41.996Z,17.88
2023-02-27T06:36:11.103Z,35.08
2023-02-27T06:38:40.646Z,24.52
2023-02-27T06:41:09.793Z,24.40
2023-02-27T06:43:38.518Z,30.77
2023-02-27T06:46:08.173Z,19.52
2023-02-27T06:48:37.015Z,16.98
2023-02-27T06:51:06.489Z,24.70
2023-02-27T06:53:35.917Z,14.75
2023-02-27T06:56:04.860Z,15.90
2023-02-27T06:58:33.892Z,18.70
2023-02-27T07:01:02.860Z,11.90
2023-02-27T07:03:31.917Z,26.63
2023-02-27T07:06:01.045Z,15.13
2023-02-27T07:08:30.649Z,17.08
2023-02-27T07:10:59.771Z,19.10
2023-02-27T07:13:29.010Z,18.42
2023-02-27T07:15:57.810Z,32.45
2023-02-27T07:18:26.890Z,16.00
2023-02-27T07:20:56.286Z,16.67
2023-02-27T07:23:25.429Z,21.75
2023-02-27T07:25:54.272Z,15.85
2023-02-27T07:28:23.634Z,18.92
2023-02-27T07:30:56.687Z,15.75
2023-02-27T07:33:25.943Z,13.95
2023-02-27T07:35:55.309Z,30.45
2023-02-27T07:38:25.061Z,16.55
2023-02-27T07:40:56.993Z,16.75
2023-02-27T07:43:26.542Z,18.58
2023-02-27T07:45:55.521Z,21.98
2023-02-27T07:48:24.611Z,22.05
2023-02-27T07:50:53.761Z,11.93
2023-02-27T07:53:22.537Z,26.95
2023-02-27T07:55:51.750Z,15.43
2023-02-27T07:58:20.591Z,18.80
2023-02-27T08:00:49.563Z,25.98
2023-02-27T08:03:18.555Z,18.80
2023-02-27T08:05:47.509Z,21.95
2023-02-27T08:08:16.325Z,23.65
2023-02-27T08:10:45.376Z,26.20
2023-02-27T08:13:16.737Z,12.77
2023-02-27T08:15:45.875Z,24.93
2023-02-27T08:18:14.677Z,26.08
2023-02-27T08:20:43.576Z,23.27
2023-02-27T08:23:13.072Z,24.98
2023-02-27T08:25:42.229Z,28.13
2023-02-27T08:28:10.982Z,30.90
2023-02-27T08:30:40.060Z,20.23
2023-02-27T08:33:08.841Z,21.75
2023-02-27T08:35:37.814Z,32.47
2023-02-27T08:38:06.663Z,34.40
2023-02-27T08:40:35.735Z,27.65
2023-02-27T08:43:04.438Z,25.85
2023-02-27T08:45:33.986Z,21.65
2023-02-27T08:48:02.844Z,15.63
2023-02-27T08:50:35.006Z,25.50
2023-02-27T08:53:04.642Z,39.67
2023-02-27T08:55:33.401Z,24.92
2023-02-27T08:58:04.662Z,17.17
2023-02-27T09:00:38.423Z,18.40
2023-02-27T09:03:09.304Z,16.75
2023-02-27T09:05:38.982Z,29.63
2023-02-27T09:08:08.750Z,21.15
2023-02-27T09:10:38.561Z,20.95
2023-02-27T09:13:07.446Z,26.92
2023-02-27T09:15:36.460Z,14.38
2023-02-27T09:18:07.856Z,28.13
2023-02-27T09:20:37.438Z,22.07
2023-02-27T09:23:06.269Z,32.03
2023-02-27T09:25:35.208Z,31.70
2023-02-27T09:28:03.980Z,20.92
2023-02-27T09:30:34.124Z,23.27
2023-02-27T09:33:03.016Z,17.42
2023-02-27T09:35:34.303Z,21.75
2023-02-27T09:38:03.375Z,20.15
2023-02-27T09:40:39.102Z,27.15
2023-02-27T09:43:26.190Z,32.58
2023-02-27T09:45:57.548Z,34.53
2023-02-27T09:48:32.667Z,37.15
2023-02-27T09:51:02.646Z,52.03
2023-02-27T09:53:38.440Z,32.88
2023-02-27T09:56:30.430Z,34.65
2023-02-27T09:59:05.936Z,37.93
2023-02-27T10:01:56.568Z,29.30
2023-02-27T10:04:47.164Z,33.72
2023-02-27T10:07:34.581Z,59.45
2023-02-27T10:10:09.669Z,33.80
2023-02-27T10:12:41.904Z,37.97
2023-02-27T10:17:50.976Z,25.33
2023-02-27T10:20:32.004Z,24.42
2023-02-27T10:23:15.439Z,26.58
2023-02-27T10:25:50.967Z,28.15
2023-02-27T10:28:22.820Z,46.03
2023-02-27T10:30:56.221Z,42.50
2023-02-27T10:33:36.928Z,34.30
2023-02-27T10:36:20.527Z,30.77
2023-02-27T10:39:02.576Z,28.35
2023-02-27T10:41:32.359Z,38.95
2023-02-27T10:44:02.615Z,50.50
2023-02-27T10:46:35.977Z,38.03
2023-02-27T10:49:18.903Z,51.25
2023-02-27T10:52:05.384Z,51.05
2023-02-27T10:54:34.419Z,50.28
2023-02-27T10:57:06.344Z,42.47
2023-02-27T10:59:39.587Z,39.38
2023-02-27T11:02:17.506Z,62.63
2023-02-27T11:04:55.750Z,65.45
2023-02-27T11:07:43.230Z,37.78
2023-02-27T11:10:15.096Z,27.30
2023-02-27T11:12:59.597Z,36.05
2023-02-27T11:15:33.847Z,37.17
2023-02-27T11:18:23.048Z,37.00
2023-02-27T11:20:52.237Z,43.13
2023-02-27T11:23:26.878Z,37.00
2023-02-27T11:26:17.361Z,35.88
2023-02-27T11:28:46.489Z,33.63
2023-02-27T11:31:23.441Z,24.90
2023-02-27T11:33:58.741Z,35.95
2023-02-27T11:36:43.814Z,29.58
2023-02-27T11:39:34.640Z,50.97
2023-02-27T11:42:35.673Z,51.55
2023-02-27T11:45:09.864Z,26.38
2023-02-27T11:47:44.860Z,19.70
2023-02-27T11:50:32.549Z,35.70
2023-02-27T11:53:17.788Z,30.48
2023-02-27T11:55:49.300Z,29.42
2023-02-27T11:58:25.009Z,43.63
2023-02-27T12:01:04.052Z,68.88
2023-02-27T12:03:58.920Z,33.60
2023-02-27T12:06:43.356Z,28.13
2023-02-27T12:09:29.221Z,32.70
2023-02-27T12:11:58.271Z,29.02
2023-02-27T12:14:34.025Z,35.05
2023-02-27T12:17:20.198Z,32.63
2023-02-27T12:20:13.706Z,36.15
2023-02-27T12:22:48.054Z,28.33
2023-02-27T12:25:29.056Z,37.90
2023-02-27T12:28:04.844Z,49.10
2023-02-27T12:30:55.729Z,48.25
2023-02-27T12:33:55.737Z,51.35
2023-02-27T12:36:27.413Z,76.75
2023-02-27T12:38:56.514Z,76.15
2023-02-27T12:41:46.062Z,53.95
2023-02-27T12:44:37.976Z,51.67
2023-02-27T12:47:23.525Z,54.17
2023-02-27T12:50:21.890Z,50.20
2023-02-27T12:53:28.641Z,50.92
2023-02-27T12:56:16.190Z,54.65
2023-02-27T12:58:57.206Z,46.58
2023-02-27T13:01:47.814Z,53.22
2023-02-27T13:04:33.976Z,51.80
2023-02-27T13:07:27.987Z,64.45
2023-02-27T13:10:04.020Z,74.32
2023-02-27T13:13:09.676Z,142.68
2023-02-27T13:15:55.645Z,62.38
2023-02-27T13:18:57.729Z,61.53
2023-02-27T13:21:30.875Z,59.30
2023-02-27T13:24:06.082Z,71.95
2023-02-27T13:26:37.419Z,66.05
2023-02-27T13:29:07.289Z,74.07
2023-02-27T13:31:51.019Z,66.75
2023-02-27T13:34:59.333Z,76.93
2023-02-27T13:37:58.832Z,61.08
2023-02-27T13:40:40.082Z,70.32
2023-02-27T13:43:46.417Z,85.03
2023-02-27T13:46:26.045Z,80.00
2023-02-27T13:49:14.694Z,64.35
2023-02-27T13:51:50.691Z,73.45
2023-02-27T13:54:42.491Z,69.80
2023-02-27T13:57:24.491Z,90.15
2023-02-27T14:00:02.837Z,100.57
2023-02-27T14:02:35.262Z,107.95
2023-02-27T14:05:08.605Z,102.43
2023-02-27T14:08:02.553Z,100.65
2023-02-27T14:10:32.888Z,88.43
2023-02-27T14:13:04.639Z,109.90
2023-02-27T14:15:34.734Z,93.07
2023-02-27T14:18:17.904Z,89.30
2023-02-27T14:20:52.836Z,104.03
2023-02-27T14:23:28.939Z,80.70
2023-02-27T14:26:17.222Z,120.43
2023-02-27T14:28:57.518Z,100.70
2023-02-27T14:31:40.192Z,114.53
2023-02-27T14:34:19.142Z,118.68
2023-02-27T14:37:01.387Z,94.43
2023-02-27T14:39:32.817Z,101.68
2023-02-27T14:42:26.444Z,122.40
2023-02-27T14:44:56.484Z,94.47
2023-02-27T14:47:35.830Z,87.47
2023-02-27T14:50:07.770Z,74.57
2023-02-27T14:52:45.771Z,65.85
2023-02-27T14:55:30.668Z,66.82
2023-02-27T14:58:08.999Z,83.38
2023-02-27T15:00:44.448Z,91.72
2023-02-27T15:03:30.517Z,82.78
2023-02-27T15:06:02.850Z,114.35
2023-02-27T15:08:40.409Z,131.93
2023-02-27T15:11:15.096Z,145.32
2023-02-27T15:13:45.434Z,135.95
2023-02-27T15:16:26.438Z,121.55
2023-02-27T15:19:01.630Z,161.98
2023-02-27T15:21:34.977Z,117.43
2023-02-27T15:24:07.573Z,137.43
2023-02-27T15:26:39.610Z,110.38
2023-02-27T15:29:10.057Z,100.28
2023-02-27T15:31:40.099Z,111.57
2023-02-27T15:34:15.272Z,109.63
2023-02-27T15:36:52.258Z,93.15
2023-02-27T15:39:27.130Z,96.20
2023-02-27T15:42:04.226Z,89.15
2023-02-27T15:44:43.272Z,91.45
2023-02-27T15:47:20.142Z,90.15
2023-02-27T15:49:53.326Z,97.88
2023-02-27T15:52:27.385Z,93.68
2023-02-27T15:55:03.355Z,73.70
2023-02-27T15:57:34.111Z,71.18
2023-02-27T16:00:03.532Z,71.47
2023-02-27T16:02:47.274Z,73.45
2023-02-27T16:05:23.035Z,69.05
2023-02-27T16:07:53.832Z,78.57
2023-02-27T16:10:29.375Z,60.03
2023-02-27T16:12:58.674Z,80.28
2023-02-27T16:15:31.025Z,83.47
2023-02-27T16:18:05.415Z,72.07
2023-02-27T16:20:51.515Z,56.38
2023-02-27T16:23:24.657Z,72.18
2023-02-27T16:26:31.416Z,65.43
2023-02-27T16:29:03.476Z,67.88
2023-02-27T16:31:38.872Z,79.60
2023-02-27T16:34:28.006Z,67.82
2023-02-27T16:37:07.521Z,95.03
2023-02-27T16:39:36.646Z,116.57
2023-02-27T16:42:05.494Z,109.25
2023-02-27T16:44:36.770Z,113.68
2023-02-27T16:47:05.943Z,124.13
2023-02-27T16:49:34.788Z,134.60
2023-02-27T16:52:04.851Z,170.93
2023-02-27T16:54:33.579Z,177.13
2023-02-27T16:57:02.805Z,175.13
2023-02-27T16:59:37.718Z,168.95
2023-02-27T17:02:16.790Z,203.57
2023-02-27T17:04:48.821Z,194.38
2023-02-27T17:07:19.331Z,177.63
2023-02-27T17:09:49.140Z,165.95
2023-02-27T17:12:17.986Z,141.55
2023-02-27T17:14:47.028Z,130.18
2023-02-27T17:17:15.871Z,94.05
2023-02-27T17:19:44.881Z,83.28
2023-02-27T17:22:13.653Z,99.68
2023-02-27T17:24:42.805Z,109.30
2023-02-27T17:27:11.627Z,123.25
2023-02-27T17:29:40.969Z,114.80
2023-02-27T17:32:09.856Z,97.22
2023-02-27T17:34:38.871Z,110.35
2023-02-27T17:37:07.718Z,125.18
2023-02-27T17:39:36.866Z,156.50
2023-02-27T17:42:06.195Z,151.00
2023-02-27T17:44:35.877Z,140.07
2023-02-27T17:47:04.886Z,142.30
2023-02-27T17:49:34.072Z,135.90
2023-02-27T17:52:02.881Z,154.40
2023-02-27T17:54:31.981Z,164.15
2023-02-27T17:57:00.911Z,149.30
2023-02-27T17:59:30.052Z,133.80
2023-02-27T18:01:59.338Z,132.20
2023-02-27T18:04:28.463Z,115.38
2023-02-27T18:06:57.284Z,119.40
2023-02-27T18:09:26.821Z,101.88
2023-02-27T18:11:55.782Z,96.55
2023-02-27T18:14:25.036Z,90.03
2023-02-27T18:16:54.200Z,88.25
2023-02-27T18:19:25.976Z,83.57
2023-02-27T18:21:55.177Z,62.85
2023-02-27T18:24:23.982Z,63.15
2023-02-27T18:26:53.063Z,59.08
2023-02-27T18:29:22.370Z,67.82
2023-02-27T18:31:54.515Z,52.83
2023-02-27T18:34:24.268Z,45.42
2023-02-27T18:36:53.241Z,37.92
2023-02-27T18:39:23.813Z,44.45
2023-02-27T18:41:52.938Z,37.40
2023-02-27T18:44:21.682Z,56.38
2023-02-27T18:46:50.726Z,43.22
2023-02-27T18:49:19.671Z,47.63
2023-02-27T18:51:49.742Z,41.97
2023-02-27T18:54:18.623Z,41.15
2023-02-27T18:56:49.513Z,43.85
2023-02-27T18:59:18.972Z,39.45
2023-02-27T19:01:47.807Z,41.42
2023-02-27T19:04:16.990Z,34.75
2023-02-27T19:06:45.700Z,47.80
2023-02-27T19:09:20.400Z,39.22
2023-02-27T19:11:50.932Z,42.95
2023-02-27T19:14:19.835Z,35.10
2023-02-27T19:16:50.741Z,46.30
2023-02-27T19:19:20.636Z,22.05
2023-02-27T19:21:49.564Z,28.45
2023-02-27T19:24:18.700Z,29.27
2023-02-27T19:26:48.303Z,28.42
2023-02-27T19:29:18.026Z,31.33
2023-02-27T19:31:47.265Z,40.88
2023-02-27T19:34:16.156Z,41.83
2023-02-27T19:36:45.209Z,39.92
2023-02-27T19:39:14.010Z,37.08
2023-02-27T19:41:43.189Z,38.63
2023-02-27T19:44:12.377Z,40.53
2023-02-27T19:46:42.511Z,51.75
2023-02-27T19:49:12.272Z,50.67
2023-02-27T19:51:42.402Z,50.70
2023-02-27T19:54:16.501Z,37.72
2023-02-27T19:56:45.514Z,69.03
2023-02-27T19:59:14.378Z,51.60
2023-02-27T20:01:43.648Z,52.00
2023-02-27T20:04:13.616Z,64.47
2023-02-27T20:06:42.973Z,66.68
2023-02-27T20:09:17.721Z,65.20
2023-02-27T20:11:48.267Z,60.17
2023-02-27T20:14:18.574Z,84.22
2023-02-27T20:16:47.992Z,76.72
2023-02-27T20:19:19.579Z,119.57
2023-02-27T20:21:49.662Z,148.50
2023-02-27T20:24:19.880Z,172.20
2023-02-27T20:26:51.548Z,176.90
2023-02-27T20:29:24.063Z,136.25
2023-02-27T20:34:27.264Z,156.73
2023-02-27T20:36:57.227Z,146.77
2023-02-27T20:39:26.915Z,177.93
2023-02-27T20:41:56.070Z,161.52
2023-02-27T20:44:25.094Z,170.15
2023-02-27T20:46:54.119Z,169.43
2023-02-27T20:49:24.157Z,147.68
2023-02-27T20:51:53.730Z,153.98
2023-02-27T20:54:22.687Z,181.02
2023-02-27T20:56:53.674Z,177.68
2023-02-27T20:59:26.030Z,177.48
2023-02-27T21:01:55.789Z,177.88
2023-02-27T21:04:43.884Z,163.93
2023-02-27T21:07:15.701Z,170.23
2023-02-27T21:09:45.334Z,146.07
2023-02-27T21:12:14.644Z,151.80
2023-02-27T21:14:44.956Z,138.45
2023-02-27T21:17:14.677Z,133.32
2023-02-27T21:19:43.550Z,150.93
2023-02-27T21:22:12.515Z,155.55
2023-02-27T21:24:41.294Z,140.75
2023-02-27T21:27:10.525Z,149.65
2023-02-27T21:29:40.281Z,168.93
2023-02-27T21:32:09.322Z,163.02
2023-02-27T21:34:38.123Z,171.75
2023-02-27T21:37:08.370Z,195.52
2023-02-27T21:39:37.539Z,208.98
2023-02-27T21:42:07.702Z,197.32
2023-02-27T21:44:36.858Z,185.93
2023-02-27T21:47:11.178Z,177.30
2023-02-27T21:49:40.791Z,194.23
2023-02-27T21:52:09.534Z,162.65
2023-02-27T21:54:39.150Z,163.80
2023-02-27T21:57:08.058Z,141.57
2023-02-27T21:59:37.122Z,146.43
2023-02-27T22:02:06.652Z,144.27
2023-02-27T22:04:35.743Z,153.10
2023-02-27T22:07:04.566Z,145.52
2023-02-27T22:09:33.530Z,151.77
2023-02-27T22:12:02.499Z,137.02
2023-02-27T22:14:31.597Z,128.55
2023-02-27T22:17:00.322Z,128.68
2023-02-27T22:19:29.427Z,132.02
2023-02-27T22:21:58.181Z,99.25
2023-02-27T22:24:27.298Z,111.55
2023-02-27T22:26:56.185Z,117.15
2023-02-27T22:29:25.227Z,105.45
2023-02-27T22:31:54.157Z,105.80
2023-02-27T22:34:23.256Z,144.18
2023-02-27T22:36:53.346Z,149.48
2023-02-27T22:39:22.482Z,183.35
2023-02-27T22:41:51.489Z,171.43
2023-02-27T22:44:20.553Z,177.77
2023-02-27T22:46:51.018Z,175.07
2023-02-27T22:49:21.421Z,175.00
2023-02-27T22:51:52.209Z,206.27
2023-02-27T22:54:23.721Z,180.00
2023-02-27T22:56:56.318Z,181.07
2023-02-27T22:59:27.546Z,187.70
2023-02-27T23:01:56.320Z,187.88
2023-02-27T23:04:25.341Z,195.88
2023-02-27T23:06:57.082Z,171.63
2023-02-27T23:09:28.083Z,153.88
2023-02-27T23:11:57.960Z,139.68
2023-02-27T23:14:26.796Z,128.18
2023-02-27T23:16:57.411Z,131.68
2023-02-27T23:19:26.483Z,114.07
2023-02-27T23:21:55.233Z,105.85
2023-02-27T23:24:24.186Z,105.22
2023-02-27T23:26:54.100Z,97.32
2023-02-27T23:29:23.143Z,98.65
2023-02-27T23:31:51.972Z,82.85
2023-02-27T23:34:21.198Z,80.35
2023-02-27T23:36:49.991Z,72.95
2023-02-27T23:39:18.947Z,54.58
2023-02-27T23:41:47.814Z,88.38
2023-02-27T23:44:35.179Z,39.03
2023-02-27T23:47:04.579Z,60.47
2023-02-27T23:49:33.285Z,51.00
2023-02-27T23:52:02.381Z,39.00
2023-02-27T23:54:31.203Z,35.45
2023-02-27T23:57:00.141Z,38.75
2023-02-27T23:59:29.656Z,51.05
